sensor_id;sensor_type;location;lat;lon;timestamp;P1;durP1;ratioP1;P2;durP2;ratioP2
8213;SDS011;4148;47.974;7.824;2023-02-15T00:01:48;32.77;;;19.40;;
8213;SDS011;4148;47.974;7.824;2023-02-15T00:04:19;39.93;;;20.60;;
8213;SDS011;4148;47.974;7.824;2023-02-15T00:06:49;31.97;;;19.30;;
8213;SDS011;4148;47.974;7.824;2023-02-15T00:09:18;30.80;;;20.37;;
8213;SDS011;4148;47.974;7.824;2023-02-15T00:11:46;26.57;;;18.10;;
8213;SDS011;4148;47.974;7.824;2023-02-15T00:14:17;27.27;;;17.20;;
8213;SDS011;4148;47.974;7.824;2023-02-15T00:16:46;33.13;;;18.27;;
8213;SDS011;4148;47.974;7.824;2023-02-15T00:19:16;29.60;;;19.20;;
8213;SDS011;4148;47.974;7.824;2023-02-15T00:21:46;32.07;;;19.40;;
8213;SDS011;4148;47.974;7.824;2023-02-15T00:24:15;35.20;;;19.87;;
8213;SDS011;4148;47.974;7.824;2023-02-15T00:26:46;34.47;;;19.93;;
8213;SDS011;4148;47.974;7.824;2023-02-15T00:29:15;38.17;;;21.13;;
8213;SDS011;4148;47.974;7.824;2023-02-15T00:31:44;35.33;;;19.57;;
8213;SDS011;4148;47.974;7.824;2023-02-15T00:34:13;29.90;;;17.87;;
8213;SDS011;4148;47.974;7.824;2023-02-15T00:36:42;34.67;;;18.13;;
8213;SDS011;4148;47.974;7.824;2023-02-15T00:39:11;33.10;;;18.57;;
8213;SDS011;4148;47.974;7.824;2023-02-15T00:41:39;38.37;;;21.00;;
8213;SDS011;4148;47.974;7.824;2023-02-15T00:44:09;32.83;;;20.50;;
8213;SDS011;4148;47.974;7.824;2023-02-15T00:46:36;32.17;;;19.33;;
8213;SDS011;4148;47.974;7.824;2023-02-15T00:49:04;33.10;;;19.70;;
8213;SDS011;4148;47.974;7.824;2023-02-15T00:51:32;39.30;;;19.73;;
8213;SDS011;4148;47.974;7.824;2023-02-15T00:54:01;30.30;;;18.93;;
8213;SDS011;4148;47.974;7.824;2023-02-15T00:56:29;30.90;;;19.50;;
8213;SDS011;4148;47.974;7.824;2023-02-15T00:58:56;55.77;;;21.53;;
8213;SDS011;4148;47.974;7.824;2023-02-15T01:01:26;33.07;;;19.03;;
8213;SDS011;4148;47.974;7.824;2023-02-15T01:03:53;30.57;;;18.67;;
8213;SDS011;4148;47.974;7.824;2023-02-15T01:06:21;85.63;;;19.73;;
8213;SDS011;4148;47.974;7.824;2023-02-15T01:08:49;48.73;;;18.57;;
8213;SDS011;4148;47.974;7.824;2023-02-15T01:11:18;54.30;;;21.17;;
8213;SDS011;4148;47.974;7.824;2023-02-15T01:13:48;31.60;;;18.90;;
8213;SDS011;4148;47.974;7.824;2023-02-15T01:16:17;34.87;;;16.70;;
8213;SDS011;4148;47.974;7.824;2023-02-15T01:18:47;94.10;;;21.67;;
8213;SDS011;4148;47.974;7.824;2023-02-15T01:21:15;29.83;;;18.33;;
8213;SDS011;4148;47.974;7.824;2023-02-15T01:23:44;29.70;;;17.63;;
8213;SDS011;4148;47.974;7.824;2023-02-15T01:26:12;28.10;;;17.53;;
8213;SDS011;4148;47.974;7.824;2023-02-15T01:28:41;33.70;;;19.57;;
8213;SDS011;4148;47.974;7.824;2023-02-15T01:31:09;46.97;;;20.50;;
8213;SDS011;4148;47.974;7.824;2023-02-15T01:33:38;41.63;;;19.50;;
8213;SDS011;4148;47.974;7.824;2023-02-15T01:36:08;36.77;;;19.00;;
8213;SDS011;4148;47.974;7.824;2023-02-15T01:38:36;35.67;;;19.30;;
8213;SDS011;4148;47.974;7.824;2023-02-15T01:41:03;49.17;;;22.20;;
8213;SDS011;4148;47.974;7.824;2023-02-15T01:43:49;32.93;;;19.73;;
8213;SDS011;4148;47.974;7.824;2023-02-15T01:46:20;30.90;;;19.20;;
8213;SDS011;4148;47.974;7.824;2023-02-15T01:48:52;41.13;;;19.40;;
8213;SDS011;4148;47.974;7.824;2023-02-15T01:51:29;30.53;;;18.93;;
8213;SDS011;4148;47.974;7.824;2023-02-15T01:54:01;35.43;;;19.30;;
8213;SDS011;4148;47.974;7.824;2023-02-15T01:56:33;56.80;;;21.30;;
8213;SDS011;4148;47.974;7.824;2023-02-15T01:59:04;41.47;;;20.07;;
8213;SDS011;4148;47.974;7.824;2023-02-15T02:01:35;39.30;;;19.40;;
8213;SDS011;4148;47.974;7.824;2023-02-15T02:04:05;36.40;;;20.20;;
8213;SDS011;4148;47.974;7.824;2023-02-15T02:06:39;31.53;;;17.53;;
8213;SDS011;4148;47.974;7.824;2023-02-15T02:09:08;35.93;;;19.47;;
8213;SDS011;4148;47.974;7.824;2023-02-15T02:11:36;35.53;;;18.80;;
8213;SDS011;4148;47.974;7.824;2023-02-15T02:14:06;40.70;;;19.10;;
8213;SDS011;4148;47.974;7.824;2023-02-15T02:16:36;30.13;;;18.70;;
8213;SDS011;4148;47.974;7.824;2023-02-15T02:19:15;29.53;;;18.30;;
8213;SDS011;4148;47.974;7.824;2023-02-15T02:28:14;77.13;;;20.20;;
8213;SDS011;4148;47.974;7.824;2023-02-15T02:31:03;144.40;;;22.33;;
8213;SDS011;4148;47.974;7.824;2023-02-15T02:33:58;50.67;;;19.60;;
8213;SDS011;4148;47.974;7.824;2023-02-15T02:36:31;70.00;;;20.37;;
8213;SDS011;4148;47.974;7.824;2023-02-15T02:39:11;69.53;;;19.70;;
8213;SDS011;4148;47.974;7.824;2023-02-15T02:41:49;49.63;;;19.43;;
8213;SDS011;4148;47.974;7.824;2023-02-15T02:44:22;112.83;;;25.23;;
8213;SDS011;4148;47.974;7.824;2023-02-15T02:46:53;107.73;;;25.33;;
8213;SDS011;4148;47.974;7.824;2023-02-15T02:49:31;92.37;;;21.77;;
8213;SDS011;4148;47.974;7.824;2023-02-15T02:51:59;167.10;;;22.63;;
8213;SDS011;4148;47.974;7.824;2023-02-15T02:54:28;43.03;;;19.27;;
8213;SDS011;4148;47.974;7.824;2023-02-15T02:56:58;40.23;;;20.37;;
8213;SDS011;4148;47.974;7.824;2023-02-15T02:59:29;36.13;;;18.13;;
8213;SDS011;4148;47.974;7.824;2023-02-15T03:02:01;40.10;;;17.80;;
8213;SDS011;4148;47.974;7.824;2023-02-15T03:04:36;39.93;;;19.03;;
8213;SDS011;4148;47.974;7.824;2023-02-15T03:07:07;126.83;;;23.13;;
8213;SDS011;4148;47.974;7.824;2023-02-15T03:09:38;76.53;;;19.90;;
8213;SDS011;4148;47.974;7.824;2023-02-15T03:12:09;81.60;;;21.00;;
8213;SDS011;4148;47.974;7.824;2023-02-15T03:14:40;62.73;;;19.40;;
8213;SDS011;4148;47.974;7.824;2023-02-15T03:17:11;41.50;;;19.10;;
8213;SDS011;4148;47.974;7.824;2023-02-15T03:19:42;68.10;;;19.83;;
8213;SDS011;4148;47.974;7.824;2023-02-15T03:22:14;63.77;;;21.10;;
8213;SDS011;4148;47.974;7.824;2023-02-15T03:24:47;55.10;;;18.97;;
8213;SDS011;4148;47.974;7.824;2023-02-15T03:27:21;53.20;;;19.93;;
8213;SDS011;4148;47.974;7.824;2023-02-15T03:29:52;26.53;;;17.37;;
8213;SDS011;4148;47.974;7.824;2023-02-15T03:32:22;47.07;;;18.20;;
8213;SDS011;4148;47.974;7.824;2023-02-15T03:34:53;33.53;;;17.20;;
8213;SDS011;4148;47.974;7.824;2023-02-15T03:37:23;56.00;;;18.27;;
8213;SDS011;4148;47.974;7.824;2023-02-15T03:39:55;46.33;;;18.67;;
8213;SDS011;4148;47.974;7.824;2023-02-15T03:42:46;40.53;;;18.80;;
8213;SDS011;4148;47.974;7.824;2023-02-15T03:45:21;29.43;;;18.20;;
8213;SDS011;4148;47.974;7.824;2023-02-15T03:47:52;36.50;;;16.57;;
8213;SDS011;4148;47.974;7.824;2023-02-15T03:50:26;29.23;;;17.40;;
8213;SDS011;4148;47.974;7.824;2023-02-15T03:53:14;38.33;;;15.90;;
8213;SDS011;4148;47.974;7.824;2023-02-15T03:55:47;33.97;;;18.43;;
8213;SDS011;4148;47.974;7.824;2023-02-15T03:58:15;24.77;;;15.70;;
8213;SDS011;4148;47.974;7.824;2023-02-15T04:01:03;35.10;;;18.30;;
8213;SDS011;4148;47.974;7.824;2023-02-15T04:03:59;60.63;;;19.50;;
8213;SDS011;4148;47.974;7.824;2023-02-15T04:06:31;42.07;;;18.17;;
8213;SDS011;4148;47.974;7.824;2023-02-15T04:08:59;54.47;;;20.93;;
8213;SDS011;4148;47.974;7.824;2023-02-15T04:11:44;65.77;;;17.60;;
8213;SDS011;4148;47.974;7.824;2023-02-15T04:14:12;50.73;;;18.23;;
8213;SDS011;4148;47.974;7.824;2023-02-15T04:16:58;32.67;;;16.33;;
8213;SDS011;4148;47.974;7.824;2023-02-15T04:19:25;39.83;;;18.10;;
8213;SDS011;4148;47.974;7.824;2023-02-15T04:22:12;63.30;;;18.10;;
8213;SDS011;4148;47.974;7.824;2023-02-15T04:24:57;27.70;;;16.17;;
8213;SDS011;4148;47.974;7.824;2023-02-15T04:27:38;27.50;;;16.23;;
8213;SDS011;4148;47.974;7.824;2023-02-15T04:30:08;56.40;;;17.83;;
8213;SDS011;4148;47.974;7.824;2023-02-15T04:32:37;37.90;;;16.90;;
8213;SDS011;4148;47.974;7.824;2023-02-15T04:35:05;36.17;;;17.27;;
8213;SDS011;4148;47.974;7.824;2023-02-15T04:37:35;30.20;;;16.67;;
8213;SDS011;4148;47.974;7.824;2023-02-15T04:40:03;49.37;;;17.83;;
8213;SDS011;4148;47.974;7.824;2023-02-15T04:42:32;34.60;;;16.53;;
8213;SDS011;4148;47.974;7.824;2023-02-15T04:45:00;29.60;;;15.10;;
8213;SDS011;4148;47.974;7.824;2023-02-15T04:47:28;27.23;;;15.80;;
8213;SDS011;4148;47.974;7.824;2023-02-15T04:49:55;24.10;;;14.90;;
8213;SDS011;4148;47.974;7.824;2023-02-15T04:52:23;24.67;;;15.50;;
8213;SDS011;4148;47.974;7.824;2023-02-15T04:54:53;33.60;;;15.47;;
8213;SDS011;4148;47.974;7.824;2023-02-15T04:57:20;29.53;;;16.40;;
8213;SDS011;4148;47.974;7.824;2023-02-15T04:59:48;26.30;;;17.10;;
8213;SDS011;4148;47.974;7.824;2023-02-15T05:02:16;30.03;;;15.63;;
8213;SDS011;4148;47.974;7.824;2023-02-15T05:04:44;24.07;;;15.80;;
8213;SDS011;4148;47.974;7.824;2023-02-15T05:07:11;31.50;;;16.50;;
8213;SDS011;4148;47.974;7.824;2023-02-15T05:09:40;70.80;;;18.10;;
8213;SDS011;4148;47.974;7.824;2023-02-15T05:12:10;27.60;;;15.30;;
8213;SDS011;4148;47.974;7.824;2023-02-15T05:14:37;28.60;;;14.73;;
8213;SDS011;4148;47.974;7.824;2023-02-15T05:17:05;47.77;;;19.40;;
8213;SDS011;4148;47.974;7.824;2023-02-15T05:19:33;26.90;;;16.33;;
8213;SDS011;4148;47.974;7.824;2023-02-15T05:22:01;45.33;;;18.03;;
8213;SDS011;4148;47.974;7.824;2023-02-15T05:24:29;36.60;;;17.23;;
8213;SDS011;4148;47.974;7.824;2023-02-15T05:27:15;32.93;;;17.80;;
8213;SDS011;4148;47.974;7.824;2023-02-15T05:30:01;48.90;;;18.77;;
8213;SDS011;4148;47.974;7.824;2023-02-15T05:32:29;29.60;;;15.90;;
8213;SDS011;4148;47.974;7.824;2023-02-15T05:34:56;39.90;;;16.70;;
8213;SDS011;4148;47.974;7.824;2023-02-15T05:37:24;39.93;;;15.97;;
8213;SDS011;4148;47.974;7.824;2023-02-15T05:39:52;47.03;;;17.27;;
8213;SDS011;4148;47.974;7.824;2023-02-15T05:42:21;22.67;;;15.23;;
8213;SDS011;4148;47.974;7.824;2023-02-15T05:44:49;28.30;;;16.57;;
8213;SDS011;4148;47.974;7.824;2023-02-15T05:47:17;27.30;;;16.60;;
8213;SDS011;4148;47.974;7.824;2023-02-15T05:49:45;25.60;;;16.27;;
8213;SDS011;4148;47.974;7.824;2023-02-15T05:52:13;26.60;;;16.07;;
8213;SDS011;4148;47.974;7.824;2023-02-15T05:54:40;26.47;;;14.43;;
8213;SDS011;4148;47.974;7.824;2023-02-15T05:57:08;25.57;;;15.07;;
8213;SDS011;4148;47.974;7.824;2023-02-15T05:59:37;25.47;;;15.60;;
8213;SDS011;4148;47.974;7.824;2023-02-15T06:02:05;36.53;;;17.83;;
8213;SDS011;4148;47.974;7.824;2023-02-15T06:04:33;34.60;;;17.00;;
8213;SDS011;4148;47.974;7.824;2023-02-15T06:07:01;43.13;;;17.03;;
8213;SDS011;4148;47.974;7.824;2023-02-15T06:09:29;26.30;;;15.53;;
8213;SDS011;4148;47.974;7.824;2023-02-15T06:11:56;29.63;;;17.07;;
8213;SDS011;4148;47.974;7.824;2023-02-15T06:14:24;36.33;;;17.50;;
8213;SDS011;4148;47.974;7.824;2023-02-15T06:16:53;36.50;;;16.40;;
8213;SDS011;4148;47.974;7.824;2023-02-15T06:19:21;28.83;;;17.37;;
8213;SDS011;4148;47.974;7.824;2023-02-15T06:21:49;32.40;;;17.03;;
8213;SDS011;4148;47.974;7.824;2023-02-15T06:24:17;34.30;;;18.40;;
8213;SDS011;4148;47.974;7.824;2023-02-15T06:26:44;46.43;;;17.37;;
8213;SDS011;4148;47.974;7.824;2023-02-15T06:29:12;26.80;;;16.23;;
8213;SDS011;4148;47.974;7.824;2023-02-15T06:31:40;46.53;;;17.80;;
8213;SDS011;4148;47.974;7.824;2023-02-15T06:34:09;43.30;;;16.83;;
8213;SDS011;4148;47.974;7.824;2023-02-15T06:36:37;33.47;;;17.97;;
8213;SDS011;4148;47.974;7.824;2023-02-15T06:39:05;36.20;;;17.13;;
8213;SDS011;4148;47.974;7.824;2023-02-15T06:41:33;47.70;;;18.70;;
8213;SDS011;4148;47.974;7.824;2023-02-15T06:44:01;73.20;;;18.13;;
8213;SDS011;4148;47.974;7.824;2023-02-15T06:46:28;37.30;;;16.23;;
8213;SDS011;4148;47.974;7.824;2023-02-15T06:48:56;69.23;;;18.30;;
8213;SDS011;4148;47.974;7.824;2023-02-15T06:51:25;32.40;;;16.30;;
8213;SDS011;4148;47.974;7.824;2023-02-15T06:53:53;34.23;;;17.83;;
8213;SDS011;4148;47.974;7.824;2023-02-15T06:56:21;28.97;;;17.40;;
8213;SDS011;4148;47.974;7.824;2023-02-15T06:58:49;40.23;;;18.70;;
8213;SDS011;4148;47.974;7.824;2023-02-15T07:01:18;36.03;;;18.93;;
8213;SDS011;4148;47.974;7.824;2023-02-15T07:03:46;30.10;;;18.07;;
8213;SDS011;4148;47.974;7.824;2023-02-15T07:06:14;29.37;;;17.60;;
8213;SDS011;4148;47.974;7.824;2023-02-15T07:08:43;30.63;;;17.23;;
8213;SDS011;4148;47.974;7.824;2023-02-15T07:11:11;29.93;;;17.40;;
8213;SDS011;4148;47.974;7.824;2023-02-15T07:13:56;33.70;;;16.60;;
8213;SDS011;4148;47.974;7.824;2023-02-15T07:16:24;29.63;;;16.70;;
8213;SDS011;4148;47.974;7.824;2023-02-15T07:18:52;33.03;;;18.00;;
8213;SDS011;4148;47.974;7.824;2023-02-15T07:21:20;39.90;;;16.43;;
8213;SDS011;4148;47.974;7.824;2023-02-15T07:23:49;40.03;;;18.03;;
8213;SDS011;4148;47.974;7.824;2023-02-15T07:26:16;78.73;;;18.60;;
8213;SDS011;4148;47.974;7.824;2023-02-15T07:28:44;55.30;;;18.20;;
8213;SDS011;4148;47.974;7.824;2023-02-15T07:31:12;34.97;;;16.90;;
8213;SDS011;4148;47.974;7.824;2023-02-15T07:33:40;61.50;;;18.90;;
8213;SDS011;4148;47.974;7.824;2023-02-15T07:36:08;35.20;;;17.60;;
8213;SDS011;4148;47.974;7.824;2023-02-15T07:38:38;39.43;;;18.07;;
8213;SDS011;4148;47.974;7.824;2023-02-15T07:41:09;34.07;;;19.00;;
8213;SDS011;4148;47.974;7.824;2023-02-15T07:43:39;32.63;;;17.70;;
8213;SDS011;4148;47.974;7.824;2023-02-15T07:46:10;33.60;;;19.60;;
8213;SDS011;4148;47.974;7.824;2023-02-15T07:48:39;40.77;;;18.40;;
8213;SDS011;4148;47.974;7.824;2023-02-15T07:51:09;36.23;;;18.87;;
8213;SDS011;4148;47.974;7.824;2023-02-15T07:53:38;46.40;;;19.33;;
8213;SDS011;4148;47.974;7.824;2023-02-15T07:56:09;28.87;;;16.70;;
8213;SDS011;4148;47.974;7.824;2023-02-15T07:58:38;32.07;;;18.77;;
8213;SDS011;4148;47.974;7.824;2023-02-15T08:01:22;35.13;;;19.07;;
8213;SDS011;4148;47.974;7.824;2023-02-15T08:03:51;32.10;;;16.00;;
8213;SDS011;4148;47.974;7.824;2023-02-15T08:06:20;33.67;;;18.30;;
8213;SDS011;4148;47.974;7.824;2023-02-15T08:08:48;30.67;;;16.70;;
8213;SDS011;4148;47.974;7.824;2023-02-15T08:11:19;36.53;;;18.83;;
8213;SDS011;4148;47.974;7.824;2023-02-15T08:13:56;33.00;;;17.60;;
8213;SDS011;4148;47.974;7.824;2023-02-15T08:16:27;39.23;;;19.30;;
8213;SDS011;4148;47.974;7.824;2023-02-15T08:18:57;36.73;;;17.00;;
8213;SDS011;4148;47.974;7.824;2023-02-15T08:21:27;37.93;;;19.60;;
8213;SDS011;4148;47.974;7.824;2023-02-15T08:23:56;38.27;;;18.00;;
8213;SDS011;4148;47.974;7.824;2023-02-15T08:26:26;30.37;;;15.97;;
8213;SDS011;4148;47.974;7.824;2023-02-15T08:28:54;31.50;;;16.23;;
8213;SDS011;4148;47.974;7.824;2023-02-15T08:31:22;30.77;;;16.73;;
8213;SDS011;4148;47.974;7.824;2023-02-15T08:33:51;28.63;;;16.50;;
8213;SDS011;4148;47.974;7.824;2023-02-15T08:36:20;34.60;;;17.67;;
8213;SDS011;4148;47.974;7.824;2023-02-15T08:38:49;28.97;;;15.80;;
8213;SDS011;4148;47.974;7.824;2023-02-15T08:41:19;36.67;;;17.77;;
8213;SDS011;4148;47.974;7.824;2023-02-15T08:43:49;29.23;;;17.30;;
8213;SDS011;4148;47.974;7.824;2023-02-15T08:46:20;26.13;;;16.30;;
8213;SDS011;4148;47.974;7.824;2023-02-15T08:48:49;33.00;;;17.27;;
8213;SDS011;4148;47.974;7.824;2023-02-15T08:51:18;25.90;;;16.97;;
8213;SDS011;4148;47.974;7.824;2023-02-15T08:53:48;27.30;;;16.63;;
8213;SDS011;4148;47.974;7.824;2023-02-15T08:56:19;28.23;;;16.63;;
8213;SDS011;4148;47.974;7.824;2023-02-15T08:58:50;32.70;;;18.10;;
8213;SDS011;4148;47.974;7.824;2023-02-15T09:01:20;33.57;;;17.83;;
8213;SDS011;4148;47.974;7.824;2023-02-15T09:03:49;32.80;;;19.63;;
8213;SDS011;4148;47.974;7.824;2023-02-15T09:06:20;29.13;;;17.27;;
8213;SDS011;4148;47.974;7.824;2023-02-15T09:08:49;32.90;;;19.60;;
8213;SDS011;4148;47.974;7.824;2023-02-15T09:11:18;31.70;;;18.30;;
8213;SDS011;4148;47.974;7.824;2023-02-15T09:13:52;33.13;;;19.20;;
8213;SDS011;4148;47.974;7.824;2023-02-15T09:16:22;29.00;;;17.17;;
8213;SDS011;4148;47.974;7.824;2023-02-15T09:18:52;37.23;;;19.60;;
8213;SDS011;4148;47.974;7.824;2023-02-15T09:21:21;32.80;;;20.03;;
8213;SDS011;4148;47.974;7.824;2023-02-15T09:23:52;31.50;;;19.13;;
8213;SDS011;4148;47.974;7.824;2023-02-15T09:26:26;32.80;;;19.57;;
8213;SDS011;4148;47.974;7.824;2023-02-15T09:28:57;33.30;;;19.63;;
8213;SDS011;4148;47.974;7.824;2023-02-15T09:31:28;31.60;;;18.53;;
8213;SDS011;4148;47.974;7.824;2023-02-15T09:33:57;31.70;;;19.27;;
8213;SDS011;4148;47.974;7.824;2023-02-15T09:36:27;28.20;;;17.80;;
8213;SDS011;4148;47.974;7.824;2023-02-15T09:38:57;31.07;;;18.07;;
8213;SDS011;4148;47.974;7.824;2023-02-15T09:44:27;33.13;;;17.97;;
8213;SDS011;4148;47.974;7.824;2023-02-15T09:47:13;34.73;;;19.53;;
8213;SDS011;4148;47.974;7.824;2023-02-15T09:49:57;30.83;;;18.27;;
8213;SDS011;4148;47.974;7.824;2023-02-15T09:52:38;37.47;;;20.33;;
8213;SDS011;4148;47.974;7.824;2023-02-15T09:55:36;28.63;;;18.60;;
8213;SDS011;4148;47.974;7.824;2023-02-15T09:58:15;36.97;;;19.90;;
8213;SDS011;4148;47.974;7.824;2023-02-15T10:00:55;31.17;;;18.27;;
8213;SDS011;4148;47.974;7.824;2023-02-15T10:03:33;28.60;;;18.20;;
8213;SDS011;4148;47.974;7.824;2023-02-15T10:06:17;29.33;;;18.60;;
8213;SDS011;4148;47.974;7.824;2023-02-15T10:11:58;28.03;;;16.43;;
8213;SDS011;4148;47.974;7.824;2023-02-15T10:18:01;27.73;;;16.90;;
8213;SDS011;4148;47.974;7.824;2023-02-15T10:20:45;25.10;;;16.83;;
8213;SDS011;4148;47.974;7.824;2023-02-15T10:23:28;27.90;;;15.87;;
8213;SDS011;4148;47.974;7.824;2023-02-15T10:26:08;22.90;;;16.20;;
8213;SDS011;4148;47.974;7.824;2023-02-15T10:28:45;29.17;;;17.47;;
8213;SDS011;4148;47.974;7.824;2023-02-15T10:31:18;25.03;;;16.00;;
8213;SDS011;4148;47.974;7.824;2023-02-15T10:34:07;29.63;;;16.43;;
8213;SDS011;4148;47.974;7.824;2023-02-15T10:36:46;26.10;;;16.53;;
8213;SDS011;4148;47.974;7.824;2023-02-15T10:39:39;28.10;;;17.03;;
8213;SDS011;4148;47.974;7.824;2023-02-15T10:42:18;28.07;;;17.80;;
8213;SDS011;4148;47.974;7.824;2023-02-15T10:45:06;27.50;;;17.87;;
8213;SDS011;4148;47.974;7.824;2023-02-15T10:47:52;27.00;;;17.60;;
8213;SDS011;4148;47.974;7.824;2023-02-15T10:50:36;30.57;;;18.60;;
8213;SDS011;4148;47.974;7.824;2023-02-15T10:53:24;27.63;;;16.57;;
8213;SDS011;4148;47.974;7.824;2023-02-15T10:56:04;28.93;;;18.77;;
8213;SDS011;4148;47.974;7.824;2023-02-15T10:58:42;27.47;;;18.37;;
8213;SDS011;4148;47.974;7.824;2023-02-15T11:01:22;31.00;;;21.17;;
8213;SDS011;4148;47.974;7.824;2023-02-15T11:04:09;35.40;;;22.23;;
8213;SDS011;4148;47.974;7.824;2023-02-15T11:06:59;27.13;;;18.77;;
8213;SDS011;4148;47.974;7.824;2023-02-15T11:09:33;25.03;;;18.13;;
8213;SDS011;4148;47.974;7.824;2023-02-15T11:12:07;24.20;;;18.30;;
8213;SDS011;4148;47.974;7.824;2023-02-15T11:14:39;26.43;;;19.07;;
8213;SDS011;4148;47.974;7.824;2023-02-15T11:17:12;24.63;;;17.20;;
8213;SDS011;4148;47.974;7.824;2023-02-15T11:19:45;25.80;;;18.77;;
8213;SDS011;4148;47.974;7.824;2023-02-15T11:22:22;26.43;;;19.13;;
8213;SDS011;4148;47.974;7.824;2023-02-15T11:24:50;26.17;;;18.60;;
8213;SDS011;4148;47.974;7.824;2023-02-15T11:27:21;22.50;;;17.40;;
8213;SDS011;4148;47.974;7.824;2023-02-15T11:29:56;23.80;;;17.77;;
8213;SDS011;4148;47.974;7.824;2023-02-15T11:32:27;24.40;;;17.60;;
8213;SDS011;4148;47.974;7.824;2023-02-15T11:34:59;23.43;;;18.70;;
8213;SDS011;4148;47.974;7.824;2023-02-15T11:37:33;22.00;;;19.27;;
8213;SDS011;4148;47.974;7.824;2023-02-15T11:40:19;25.20;;;18.50;;
8213;SDS011;4148;47.974;7.824;2023-02-15T11:42:51;26.27;;;18.97;;
8213;SDS011;4148;47.974;7.824;2023-02-15T11:45:24;24.20;;;18.17;;
8213;SDS011;4148;47.974;7.824;2023-02-15T11:47:55;25.33;;;18.70;;
8213;SDS011;4148;47.974;7.824;2023-02-15T11:50:24;27.50;;;22.00;;
8213;SDS011;4148;47.974;7.824;2023-02-15T11:52:58;26.67;;;20.83;;
8213;SDS011;4148;47.974;7.824;2023-02-15T11:55:28;27.43;;;20.77;;
8213;SDS011;4148;47.974;7.824;2023-02-15T11:57:58;33.63;;;20.90;;
8213;SDS011;4148;47.974;7.824;2023-02-15T12:00:31;28.67;;;21.40;;
8213;SDS011;4148;47.974;7.824;2023-02-15T12:03:09;27.60;;;21.40;;
8213;SDS011;4148;47.974;7.824;2023-02-15T12:05:42;27.63;;;20.60;;
8213;SDS011;4148;47.974;7.824;2023-02-15T12:08:16;28.60;;;20.17;;
8213;SDS011;4148;47.974;7.824;2023-02-15T12:10:55;25.70;;;20.07;;
8213;SDS011;4148;47.974;7.824;2023-02-15T12:13:25;27.43;;;18.97;;
8213;SDS011;4148;47.974;7.824;2023-02-15T12:15:54;26.17;;;18.77;;
8213;SDS011;4148;47.974;7.824;2023-02-15T12:18:31;25.47;;;19.10;;
8213;SDS011;4148;47.974;7.824;2023-02-15T12:21:04;23.60;;;18.90;;
8213;SDS011;4148;47.974;7.824;2023-02-15T12:23:39;25.30;;;18.80;;
8213;SDS011;4148;47.974;7.824;2023-02-15T12:26:13;27.43;;;20.63;;
8213;SDS011;4148;47.974;7.824;2023-02-15T12:28:42;30.43;;;20.63;;
8213;SDS011;4148;47.974;7.824;2023-02-15T12:31:19;25.73;;;20.63;;
8213;SDS011;4148;47.974;7.824;2023-02-15T12:33:50;24.37;;;19.47;;
8213;SDS011;4148;47.974;7.824;2023-02-15T12:36:20;27.07;;;20.27;;
8213;SDS011;4148;47.974;7.824;2023-02-15T12:39:16;28.30;;;19.40;;
8213;SDS011;4148;47.974;7.824;2023-02-15T12:41:58;27.93;;;20.77;;
8213;SDS011;4148;47.974;7.824;2023-02-15T12:44:31;28.63;;;20.17;;
8213;SDS011;4148;47.974;7.824;2023-02-15T12:47:01;27.63;;;20.70;;
8213;SDS011;4148;47.974;7.824;2023-02-15T12:49:31;26.70;;;20.00;;
8213;SDS011;4148;47.974;7.824;2023-02-15T12:52:00;27.90;;;21.03;;
8213;SDS011;4148;47.974;7.824;2023-02-15T12:54:37;29.13;;;20.97;;
8213;SDS011;4148;47.974;7.824;2023-02-15T12:59:59;29.20;;;20.17;;
8213;SDS011;4148;47.974;7.824;2023-02-15T13:02:31;36.90;;;23.10;;
8213;SDS011;4148;47.974;7.824;2023-02-15T13:05:14;31.67;;;22.20;;
8213;SDS011;4148;47.974;7.824;2023-02-15T13:07:50;29.60;;;22.60;;
8213;SDS011;4148;47.974;7.824;2023-02-15T13:10:27;30.47;;;21.80;;
8213;SDS011;4148;47.974;7.824;2023-02-15T13:12:56;29.37;;;21.13;;
8213;SDS011;4148;47.974;7.824;2023-02-15T13:15:26;30.47;;;21.27;;
8213;SDS011;4148;47.974;7.824;2023-02-15T13:17:58;28.27;;;20.47;;
8213;SDS011;4148;47.974;7.824;2023-02-15T13:20:28;32.27;;;22.10;;
8213;SDS011;4148;47.974;7.824;2023-02-15T13:23:01;28.47;;;20.43;;
8213;SDS011;4148;47.974;7.824;2023-02-15T13:25:41;29.20;;;21.83;;
8213;SDS011;4148;47.974;7.824;2023-02-15T13:28:16;29.93;;;21.30;;
8213;SDS011;4148;47.974;7.824;2023-02-15T13:30:47;27.43;;;20.93;;
8213;SDS011;4148;47.974;7.824;2023-02-15T13:33:20;29.17;;;20.20;;
8213;SDS011;4148;47.974;7.824;2023-02-15T13:35:59;29.20;;;20.80;;
8213;SDS011;4148;47.974;7.824;2023-02-15T13:41:27;29.63;;;19.60;;
8213;SDS011;4148;47.974;7.824;2023-02-15T13:44:03;29.17;;;19.43;;
8213;SDS011;4148;47.974;7.824;2023-02-15T13:46:50;28.00;;;20.93;;
8213;SDS011;4148;47.974;7.824;2023-02-15T13:49:30;29.93;;;20.43;;
8213;SDS011;4148;47.974;7.824;2023-02-15T13:52:08;30.10;;;21.63;;
8213;SDS011;4148;47.974;7.824;2023-02-15T13:54:50;26.80;;;19.10;;
8213;SDS011;4148;47.974;7.824;2023-02-15T14:00:26;27.70;;;19.47;;
8213;SDS011;4148;47.974;7.824;2023-02-15T14:03:02;27.00;;;20.03;;
8213;SDS011;4148;47.974;7.824;2023-02-15T14:05:53;25.33;;;18.63;;
8213;SDS011;4148;47.974;7.824;2023-02-15T14:08:35;29.47;;;21.47;;
8213;SDS011;4148;47.974;7.824;2023-02-15T14:11:20;27.70;;;19.53;;
8213;SDS011;4148;47.974;7.824;2023-02-15T14:14:09;26.90;;;18.60;;
8213;SDS011;4148;47.974;7.824;2023-02-15T14:16:51;23.00;;;17.60;;
8213;SDS011;4148;47.974;7.824;2023-02-15T14:19:36;22.60;;;17.30;;
8213;SDS011;4148;47.974;7.824;2023-02-15T14:22:14;24.13;;;17.63;;
8213;SDS011;4148;47.974;7.824;2023-02-15T14:24:53;23.90;;;18.30;;
8213;SDS011;4148;47.974;7.824;2023-02-15T14:27:36;25.03;;;17.87;;
8213;SDS011;4148;47.974;7.824;2023-02-15T14:30:21;27.80;;;18.50;;
8213;SDS011;4148;47.974;7.824;2023-02-15T14:32:55;24.00;;;18.23;;
8213;SDS011;4148;47.974;7.824;2023-02-15T14:35:30;23.63;;;17.93;;
8213;SDS011;4148;47.974;7.824;2023-02-15T14:38:00;24.67;;;17.60;;
8213;SDS011;4148;47.974;7.824;2023-02-15T14:40:37;23.93;;;18.10;;
8213;SDS011;4148;47.974;7.824;2023-02-15T14:43:31;22.90;;;17.00;;
8213;SDS011;4148;47.974;7.824;2023-02-15T14:46:15;22.67;;;17.37;;
8213;SDS011;4148;47.974;7.824;2023-02-15T14:48:50;22.83;;;18.27;;
8213;SDS011;4148;47.974;7.824;2023-02-15T15:00:30;25.33;;;18.37;;
8213;SDS011;4148;47.974;7.824;2023-02-15T15:03:08;24.93;;;16.90;;
8213;SDS011;4148;47.974;7.824;2023-02-15T15:05:46;24.93;;;17.80;;
8213;SDS011;4148;47.974;7.824;2023-02-15T15:08:27;22.53;;;18.23;;
8213;SDS011;4148;47.974;7.824;2023-02-15T15:14:10;23.50;;;15.90;;
8213;SDS011;4148;47.974;7.824;2023-02-15T15:16:53;22.60;;;17.43;;
8213;SDS011;4148;47.974;7.824;2023-02-15T15:22:27;24.67;;;17.80;;
8213;SDS011;4148;47.974;7.824;2023-02-15T15:24:57;22.67;;;16.17;;
8213;SDS011;4148;47.974;7.824;2023-02-15T15:27:38;18.80;;;16.00;;
8213;SDS011;4148;47.974;7.824;2023-02-15T15:39:39;24.10;;;16.47;;
8213;SDS011;4148;47.974;7.824;2023-02-15T15:42:31;21.83;;;16.80;;
8213;SDS011;4148;47.974;7.824;2023-02-15T15:45:15;27.00;;;17.63;;
8213;SDS011;4148;47.974;7.824;2023-02-15T15:48:07;24.10;;;17.33;;
8213;SDS011;4148;47.974;7.824;2023-02-15T15:50:57;21.37;;;16.10;;
8213;SDS011;4148;47.974;7.824;2023-02-15T15:53:29;25.93;;;17.20;;
8213;SDS011;4148;47.974;7.824;2023-02-15T15:56:01;22.73;;;15.00;;
8213;SDS011;4148;47.974;7.824;2023-02-15T15:58:32;24.30;;;16.63;;
8213;SDS011;4148;47.974;7.824;2023-02-15T16:01:02;24.90;;;17.23;;
8213;SDS011;4148;47.974;7.824;2023-02-15T16:03:34;26.13;;;18.40;;
8213;SDS011;4148;47.974;7.824;2023-02-15T16:06:02;20.30;;;16.30;;
8213;SDS011;4148;47.974;7.824;2023-02-15T16:08:33;21.60;;;17.17;;
8213;SDS011;4148;47.974;7.824;2023-02-15T16:11:08;24.90;;;18.83;;
8213;SDS011;4148;47.974;7.824;2023-02-15T16:13:40;28.47;;;19.93;;